Time,TemperatureF,DewpointF,PressureIn,WindDirection,WindDirectionDegrees,WindSpeedMPH,WindSpeedGustMPH,Humidity,HourlyPrecipIn,Conditions,Clouds,dailyrainin,SoftwareType,DateUTC
2013-03-27 00:06:00,38.1,32.0,25.61,WNW,294,6.0,9.0,77,0.00,,,0.00,weatherlink.com 1.10,2013-03-27 06:06:00,
2013-03-27 00:36:00,37.0,32.0,25.61,WSW,256,6.0,10.0,82,0.00,,,0.00,weatherlink.com 1.10,2013-03-27 06:36:00,
2013-03-27 00:51:00,36.9,32.0,25.61,WNW,299,9.0,12.0,83,0.00,,,0.00,weatherlink.com 1.10,2013-03-27 06:51:00,
2013-03-27 01:21:00,36.4,32.0,25.61,NW,307,10.0,12.0,85,0.00,,,0.00,weatherlink.com 1.10,2013-03-27 07:21:00,
2013-03-27 01:36:00,36.4,32.0,25.61,NW,314,8.0,11.0,85,0.00,,,0.00,weatherlink.com 1.10,2013-03-27 07:36:00,
2013-03-27 01:51:00,36.2,32.0,25.62,NW,311,8.0,10.0,85,0.00,,,0.00,weatherlink.com 1.10,2013-03-27 07:51:00,
2013-03-27 02:06:00,35.5,32.0,25.61,WNW,299,6.0,9.0,86,0.00,,,0.00,weatherlink.com 1.10,2013-03-27 08:06:00,
2013-03-27 02:21:00,34.5,31.0,25.61,West,266,2.0,6.0,88,0.00,,,0.00,weatherlink.com 1.10,2013-03-27 08:21:00,
2013-03-27 02:36:00,34.6,31.0,25.60,NW,320,3.0,6.0,88,0.00,,,0.00,weatherlink.com 1.10,2013-03-27 08:36:00,
2013-03-27 02:51:00,34.0,31.0,25.61,NW,321,2.0,3.0,89,0.00,,,0.00,weatherlink.com 1.10,2013-03-27 08:51:00,
2013-03-27 03:06:00,33.5,31.0,25.60,NE,51,5.0,6.0,89,0.00,,,0.00,weatherlink.com 1.10,2013-03-27 09:06:00,
2013-03-27 03:21:00,33.2,30.0,25.60,NNE,30,4.0,6.0,89,0.00,,,0.00,weatherlink.com 1.10,2013-03-27 09:21:00,
2013-03-27 03:36:00,33.6,30.0,25.60,NNE,23,4.0,5.0,86,0.00,,,0.00,weatherlink.com 1.10,2013-03-27 09:36:00,
2013-03-27 03:51:00,33.6,29.0,25.60,North,357,3.0,4.0,84,0.00,,,0.00,weatherlink.com 1.10,2013-03-27 09:51:00,
2013-03-27 04:07:00,32.9,29.0,25.60,NNW,328,3.0,3.0,84,0.00,,,0.00,weatherlink.com 1.10,2013-03-27 10:07:00,
2013-03-27 04:22:00,31.8,28.0,25.60,WNW,289,1.0,1.0,86,0.00,,,0.00,weatherlink.com 1.10,2013-03-27 10:22:00,
2013-03-27 04:37:00,31.2,28.0,25.61,West,266,3.0,3.0,87,0.00,,,0.00,weatherlink.com 1.10,2013-03-27 10:37:00,
2013-03-27 04:52:00,30.5,27.0,25.61,NW,304,4.0,6.0,88,0.00,,,0.00,weatherlink.com 1.10,2013-03-27 10:52:00,
2013-03-27 05:07:00,30.0,27.0,25.61,NW,307,4.0,5.0,88,0.00,,,0.00,weatherlink.com 1.10,2013-03-27 11:07:00,
2013-03-27 05:22:00,28.9,26.0,25.62,NW,305,5.0,6.0,88,0.00,,,0.00,weatherlink.com 1.10,2013-03-27 11:22:00,
2013-03-27 05:37:00,28.4,26.0,25.62,NW,310,4.0,5.0,91,0.00,,,0.00,weatherlink.com 1.10,2013-03-27 11:37:00,
2013-03-27 05:52:00,28.2,26.0,25.62,NW,307,4.0,6.0,90,0.00,,,0.00,weatherlink.com 1.10,2013-03-27 11:52:00,
2013-03-27 06:07:00,27.9,26.0,25.62,NNW,329,3.0,5.0,92,0.00,,,0.00,weatherlink.com 1.10,2013-03-27 12:07:00,
2013-03-27 06:22:00,28.2,26.0,25.63,NNW,330,4.0,5.0,91,0.00,,,0.00,weatherlink.com 1.10,2013-03-27 12:22:00,
2013-03-27 06:37:00,28.9,26.0,25.63,NNW,332,3.0,4.0,90,0.00,,,0.00,weatherlink.com 1.10,2013-03-27 12:37:00,
2013-03-27 06:52:00,29.7,26.0,25.63,NNW,345,3.0,5.0,87,0.00,,,0.00,weatherlink.com 1.10,2013-03-27 12:52:00,
2013-03-27 07:07:00,31.3,27.0,25.64,NW,319,5.0,6.0,85,0.00,,,0.00,weatherlink.com 1.10,2013-03-27 13:07:00,
2013-03-27 07:22:00,32.9,29.0,25.65,NW,316,6.0,8.0,84,0.00,,,0.00,weatherlink.com 1.10,2013-03-27 13:22:00,
2013-03-27 07:37:00,33.3,29.0,25.65,NW,306,5.0,7.0,84,0.00,,,0.00,weatherlink.com 1.10,2013-03-27 13:37:00,
2013-03-27 07:52:00,33.8,29.0,25.65,NW,323,8.0,8.0,83,0.00,,,0.00,weatherlink.com 1.10,2013-03-27 13:52:00,
2013-03-27 08:07:00,34.3,30.0,25.66,NNW,332,5.0,8.0,83,0.00,,,0.00,weatherlink.com 1.10,2013-03-27 14:07:00,
2013-03-27 08:22:00,34.7,29.0,25.66,NW,323,5.0,8.0,81,0.00,,,0.00,weatherlink.com 1.10,2013-03-27 14:22:00,
2013-03-27 08:37:00,35.5,30.0,25.67,NNW,340,6.0,8.0,79,0.00,,,0.00,weatherlink.com 1.10,2013-03-27 14:37:00,
2013-03-27 08:52:00,36.2,30.0,25.67,NNW,340,5.0,7.0,78,0.00,,,0.00,weatherlink.com 1.10,2013-03-27 14:52:00,
2013-03-27 09:07:00,37.8,30.0,25.67,NNW,333,3.0,6.0,74,0.00,,,0.00,weatherlink.com 1.10,2013-03-27 15:07:00,
2013-03-27 09:22:00,38.4,29.0,25.67,North,352,7.0,7.0,70,0.00,,,0.00,weatherlink.com 1.10,2013-03-27 15:22:00,
2013-03-27 09:37:00,38.7,29.0,25.67,North,349,4.0,7.0,68,0.00,,,0.00,weatherlink.com 1.10,2013-03-27 15:37:00,
2013-03-27 09:52:00,39.5,29.0,25.68,North,352,7.0,7.0,66,0.00,,,0.00,weatherlink.com 1.10,2013-03-27 15:52:00,
2013-03-27 10:07:00,40.8,27.0,25.68,NW,322,4.0,6.0,59,0.00,,,0.00,weatherlink.com 1.10,2013-03-27 16:07:00,
2013-03-27 10:22:00,41.9,28.0,25.68,NNW,333,4.0,7.0,58,0.00,,,0.00,weatherlink.com 1.10,2013-03-27 16:22:00,
2013-03-27 10:37:00,42.9,27.0,25.68,NNE,21,3.0,8.0,53,0.00,,,0.00,weatherlink.com 1.10,2013-03-27 16:37:00,
2013-03-27 10:52:00,43.7,26.0,25.68,ENE,58,6.0,7.0,51,0.00,,,0.00,weatherlink.com 1.10,2013-03-27 16:52:00,
2013-03-27 11:08:00,44.5,26.0,25.68,NE,49,2.0,9.0,48,0.00,,,0.00,weatherlink.com 1.10,2013-03-27 17:08:00,
2013-03-27 11:23:00,45.7,25.0,25.68,ENE,77,1.0,7.0,45,0.00,,,0.00,weatherlink.com 1.10,2013-03-27 17:23:00,
2013-03-27 11:38:00,46.7,24.0,25.68,NE,53,6.0,9.0,41,0.00,,,0.00,weatherlink.com 1.10,2013-03-27 17:38:00,
2013-03-27 11:53:00,47.6,24.0,25.68,NNW,334,2.0,9.0,39,0.00,,,0.00,weatherlink.com 1.10,2013-03-27 17:53:00,
2013-03-27 12:08:00,48.0,25.0,25.68,North,9,3.0,5.0,41,0.00,,,0.00,weatherlink.com 1.10,2013-03-27 18:08:00,
2013-03-27 12:23:00,49.1,25.0,25.68,ENE,58,7.0,8.0,39,0.00,,,0.00,weatherlink.com 1.10,2013-03-27 18:23:00,
2013-03-27 12:38:00,50.3,25.0,25.68,SW,218,3.0,7.0,38,0.00,,,0.00,weatherlink.com 1.10,2013-03-27 18:38:00,
2013-03-27 12:53:00,50.1,26.0,25.67,SW,217,7.0,7.0,40,0.00,,,0.00,weatherlink.com 1.10,2013-03-27 18:53:00,
2013-03-27 13:08:00,50.3,27.0,25.67,SSW,208,3.0,8.0,40,0.00,,,0.00,weatherlink.com 1.10,2013-03-27 19:08:00,
2013-03-27 13:23:00,50.9,27.0,25.67,NW,321,2.0,9.0,40,0.00,,,0.00,weatherlink.com 1.10,2013-03-27 19:23:00,
2013-03-27 13:38:00,51.0,27.0,25.66,NE,53,0.0,9.0,39,0.00,,,0.00,weatherlink.com 1.10,2013-03-27 19:38:00,
2013-03-27 13:53:00,52.4,28.0,25.66,ESE,110,3.0,6.0,39,0.00,,,0.00,weatherlink.com 1.10,2013-03-27 19:53:00,
2013-03-27 14:08:00,52.7,28.0,25.66,NNW,328,3.0,12.0,39,0.00,,,0.00,weatherlink.com 1.10,2013-03-27 20:08:00,
2013-03-27 14:23:00,53.3,29.0,25.65,SSW,212,5.0,10.0,39,0.00,,,0.00,weatherlink.com 1.10,2013-03-27 20:23:00,
2013-03-27 14:53:00,53.8,29.0,25.64,ESE,108,2.0,10.0,39,0.00,,,0.00,weatherlink.com 1.10,2013-03-27 20:53:00,
2013-03-27 15:08:00,53.4,29.0,25.64,NE,44,5.0,12.0,40,0.00,,,0.00,weatherlink.com 1.10,2013-03-27 21:08:00,
2013-03-27 15:23:00,53.2,29.0,25.64,SSE,165,4.0,8.0,40,0.00,,,0.00,weatherlink.com 1.10,2013-03-27 21:23:00,
2013-03-27 15:38:00,54.4,30.0,25.64,ENE,60,3.0,4.0,40,0.00,,,0.00,weatherlink.com 1.10,2013-03-27 21:38:00,
2013-03-27 15:53:00,54.9,30.0,25.64,NNW,346,5.0,8.0,38,0.00,,,0.00,weatherlink.com 1.10,2013-03-27 21:53:00,
2013-03-27 16:08:00,55.7,30.0,25.63,SW,232,7.0,8.0,38,0.00,,,0.00,weatherlink.com 1.10,2013-03-27 22:08:00,
2013-03-27 16:23:00,55.8,30.0,25.63,WNW,297,0.0,8.0,37,0.00,,,0.00,weatherlink.com 1.10,2013-03-27 22:23:00,
2013-03-27 16:38:00,56.8,29.0,25.63,ENE,63,2.0,6.0,35,0.00,,,0.00,weatherlink.com 1.10,2013-03-27 22:38:00,
2013-03-27 16:53:00,57.1,30.0,25.63,West,276,3.0,6.0,36,0.00,,,0.00,weatherlink.com 1.10,2013-03-27 22:53:00,
2013-03-27 17:08:00,56.2,29.0,25.63,NW,304,2.0,4.0,36,0.00,,,0.00,weatherlink.com 1.10,2013-03-27 23:08:00,
2013-03-27 17:23:00,55.4,29.0,25.63,ESE,105,10.0,12.0,36,0.00,,,0.00,weatherlink.com 1.10,2013-03-27 23:23:00,
2013-03-27 17:38:00,53.9,29.0,25.63,ESE,107,9.0,15.0,38,0.00,,,0.00,weatherlink.com 1.10,2013-03-27 23:38:00,
2013-03-27 17:53:00,53.2,29.0,25.64,SE,128,10.0,13.0,39,0.00,,,0.00,weatherlink.com 1.10,2013-03-27 23:53:00,
2013-03-27 18:08:00,51.8,28.0,25.64,SE,136,14.0,20.0,40,0.00,,,0.00,weatherlink.com 1.10,2013-03-28 00:08:00,
2013-03-27 18:23:00,50.8,28.0,25.65,ESE,123,19.0,20.0,42,0.00,,,0.00,weatherlink.com 1.10,2013-03-28 00:23:00,
2013-03-27 18:38:00,49.6,31.0,25.65,South,174,19.0,24.0,50,0.00,,,0.00,weatherlink.com 1.10,2013-03-28 00:38:00,
2013-03-27 18:53:00,48.5,31.0,25.66,SSE,153,16.0,23.0,52,0.00,,,0.00,weatherlink.com 1.10,2013-03-28 00:53:00,
2013-03-27 19:08:00,46.8,31.0,25.67,SSE,162,16.0,20.0,54,0.00,,,0.00,weatherlink.com 1.10,2013-03-28 01:08:00,
2013-03-27 19:23:00,46.2,31.0,25.66,SSE,158,11.0,21.0,55,0.00,,,0.00,weatherlink.com 1.10,2013-03-28 01:23:00,
2013-03-27 19:38:00,45.2,31.0,25.67,SSE,158,13.0,19.0,57,0.00,,,0.00,weatherlink.com 1.10,2013-03-28 01:38:00,
2013-03-27 20:08:00,42.9,31.0,25.68,SSE,159,10.0,16.0,62,0.00,,,0.00,weatherlink.com 1.10,2013-03-28 02:08:00,
2013-03-27 20:23:00,41.2,31.0,25.68,SSW,211,13.0,17.0,66,0.00,,,0.00,weatherlink.com 1.10,2013-03-28 02:23:00,
2013-03-27 20:38:00,40.3,30.0,25.69,SSW,205,12.0,16.0,67,0.00,,,0.00,weatherlink.com 1.10,2013-03-28 02:38:00,
2013-03-27 20:53:00,39.7,29.0,25.69,SSW,204,10.0,13.0,66,0.00,,,0.00,weatherlink.com 1.10,2013-03-28 02:53:00,
2013-03-27 21:08:00,38.7,28.0,25.70,SSW,205,8.0,12.0,66,0.00,,,0.00,weatherlink.com 1.10,2013-03-28 03:08:00,
2013-03-27 21:24:00,38.1,28.0,25.70,South,189,7.0,11.0,67,0.00,,,0.00,weatherlink.com 1.10,2013-03-28 03:24:00,
2013-03-27 21:39:00,37.2,29.0,25.70,South,174,9.0,10.0,71,0.00,,,0.00,weatherlink.com 1.10,2013-03-28 03:39:00,
2013-03-27 21:54:00,37.7,29.0,25.70,South,191,7.0,14.0,70,0.00,,,0.00,weatherlink.com 1.10,2013-03-28 03:54:00,
2013-03-27 22:09:00,37.2,29.0,25.70,South,176,10.0,13.0,71,0.00,,,0.00,weatherlink.com 1.10,2013-03-28 04:09:00,
2013-03-27 22:39:00,35.7,28.0,25.70,SSW,205,7.0,10.0,73,0.00,,,0.00,weatherlink.com 1.10,2013-03-28 04:39:00,
2013-03-27 22:54:00,34.6,27.0,25.70,South,173,3.0,5.0,74,0.00,,,0.00,weatherlink.com 1.10,2013-03-28 04:54:00,
2013-03-27 23:09:00,33.1,26.0,25.69,South,188,6.0,6.0,76,0.00,,,0.00,weatherlink.com 1.10,2013-03-28 05:09:00,
2013-03-27 23:24:00,31.8,27.0,25.69,SSW,204,7.0,8.0,81,0.00,,,0.00,weatherlink.com 1.10,2013-03-28 05:24:00,
2013-03-27 23:39:00,32.3,27.0,25.69,SSW,211,8.0,9.0,81,0.00,,,0.00,weatherlink.com 1.10,2013-03-28 05:39:00,
2013-03-27 23:54:00,30.6,26.0,25.69,SW,231,5.0,7.0,83,0.00,,,0.00,weatherlink.com 1.10,2013-03-28 05:54:00,